Middletown, CT

12:17 AM EST on February 27, 2015 (GMT -0500)
Chester | Change Station
CLOSE
Current Station
Airport
Location: Chester,
Elevation: 413 ft
Nearby Weather Stations

Elev 413 ft 41.38 °N, 72.51 °W | Updated 22 minutes ago

Partly Cloudy
Partly Cloudy
19 °F
Feels Like 19 °F
N
0
Wind Variable Wind from North

Today
High -- | Low -- °F
--% Chance of Precip.
Yesterday
High -- | Low -- °F
Precip. -- in
6:28 AM 5:38 PM
Waxing Gibbous, 65% visible
Pressure 30.10 in
Visibility 10.0 miles
Clouds Clear
Dew Point 12 °F
Humidity 74%
Rainfall 0.12 in
Snow Depth Not available.
UV 0 out of 12
Pollen .40 out of 12
Air Quality Not available.
Flu Activity Not available.
METAR KSNC 270455Z AUTO 00000KT 10SM CLR M07/M11 A3010 RMK AO2

More Conditions Fewer Conditions

Pressure 30.10 in
Visibility 10.0 miles
Clouds Clear
Dew Point 12 °F
Humidity 74%
Rainfall 0.12 in
Snow Depth Not available.
UV 0 out of 12
Pollen .40 out of 12
Air Quality Not available.
Flu Activity Not available.
METAR KSNC 270455Z AUTO 00000KT 10SM CLR M07/M11 A3010 RMK AO2

More Conditions Fewer Conditions

10-Day Weather Forecast

Almanac

Astronomy

Feb. 27, 2015 Rise Set
Actual Time
Civil Twilight
Nautical Twilight
Astronomical Twilight
Moon
Length of Visible Light
Length of Day
Tomorrow will be .
, % of the Moon is Illuminated

Today's Extremes

State Highs State Lows

Community

WunderPhotos

Upload Photos

1,800,637 photos uploaded!

WunderBlogs® & News

Nearby

Air Quality

  Air Quality AQ Index Pollutant
Not available.

Snow Depth

Station Depth Elevation

Earthquake Activity

City Distance Mag. Time & Date
Minimum magnitude displayed is 2.5.

Coastal Water Temperatures

Place Temperature

Nearby Weather Stations